Terminal Aerodrome Forecast
Issued by NWS

Home | Current Version | Previous Version | Text Only | Print | Product List | Glossary On
Versions: 1 2 3 4 5 6 7 8 9 10 11 12 13 14 15 16 17 18
000
FTUS45 KVEF 211100
TAFBIH
TAF
KBIH 211120Z 2112/2212 VRB05KT P6SM VCTS BKN100CB
     FM211300 VRB05KT P6SM SCT110
     FM212000 16012G20KT P6SM SCT120
     FM220200 16010KT P6SM FEW120=

USA.gov is the U.S. government's official web portal to all federal, state and local government web resources and services.